Time;durP1;ratioP1;P1;durP2;ratioP2;P2;SDS_P1;SDS_P2;PMS_P1;PMS_P2;Temp;Humidity;BMP_temperature;BMP_pressure;BME280_temperature;BME280_humidity;BME280_pressure;Samples;Min_cycle;Max_cycle;Signal;HPM_P1;HPM_P2
2021/05/16 00:02:04;;;;;;;;;;;21.00;56.80;;;;;;4705753;30;19957;-81
2021/05/16 00:04:31;;;;;;;;;;;21.00;56.70;;;;;;4696989;30;19963;-81
2021/05/16 00:06:58;;;;;;;;;;;21.00;56.70;;;;;;4698373;30;19938;-81
2021/05/16 00:09:25;;;;;;;;;;;20.90;56.70;;;;;;4697841;30;19939;-81
2021/05/16 00:11:51;;;;;;;;;;;21.00;56.70;;;;;;4693391;30;19955;-81
2021/05/16 00:14:18;;;;;;;;;;;21.00;56.60;;;;;;4696218;30;19942;-81
2021/05/16 00:16:45;;;;;;;;;;;20.90;56.60;;;;;;4691351;30;20026;-81
2021/05/16 00:19:12;;;;;;;;;;;20.90;56.60;;;;;;4679107;30;19935;-80
2021/05/16 00:21:39;;;;;;;;;;;20.90;56.60;;;;;;4694469;30;20319;-80
2021/05/16 00:24:07;;;;;;;;;;;20.90;56.60;;;;;;4687367;30;19981;-80
2021/05/16 00:26:34;;;;;;;;;;;20.90;56.60;;;;;;4694053;30;19985;-80
2021/05/16 00:29:01;;;;;;;;;;;20.90;56.60;;;;;;4684228;30;19931;-79
2021/05/16 00:31:27;;;;;;;;;;;20.90;56.60;;;;;;4695292;30;19943;-80
2021/05/16 00:33:54;;;;;;;;;;;20.90;56.70;;;;;;4704050;30;19931;-79
2021/05/16 00:36:21;;;;;;;;;;;20.90;56.70;;;;;;4691816;30;20419;-80
2021/05/16 00:38:48;;;;;;;;;;;20.90;56.70;;;;;;4694299;30;19939;-80
2021/05/16 00:41:14;;;;;;;;;;;20.90;56.70;;;;;;4689331;30;19966;-80
2021/05/16 00:43:41;;;;;;;;;;;20.90;56.70;;;;;;4688879;30;19931;-80
2021/05/16 00:46:13;;;;;;;;;;;20.90;56.60;;;;;;4695184;30;20520;-79
2021/05/16 00:48:39;;;;;;;;;;;20.80;56.60;;;;;;4678710;30;19940;-80
2021/05/16 00:51:06;;;;;;;;;;;20.80;56.60;;;;;;4684707;30;19932;-80
2021/05/16 00:53:34;;;;;;;;;;;20.90;56.60;;;;;;4688025;30;19938;-79
2021/05/16 00:56:00;;;;;;;;;;;20.90;56.60;;;;;;4694507;30;19989;-79
2021/05/16 00:58:28;;;;;;;;;;;20.80;56.60;;;;;;4693496;30;20356;-80
2021/05/16 01:00:55;;;;;;;;;;;20.90;56.60;;;;;;4682088;30;19931;-80
2021/05/16 01:03:22;;;;;;;;;;;20.80;56.60;;;;;;4710573;30;20004;-80
2021/05/16 01:05:49;;;;;;;;;;;20.80;56.60;;;;;;4703428;30;19933;-80
2021/05/16 01:08:16;;;;;;;;;;;20.90;56.60;;;;;;4695832;30;20098;-80
2021/05/16 01:10:45;;;;;;;;;;;20.80;56.50;;;;;;4723044;30;19931;-80
2021/05/16 01:13:12;;;;;;;;;;;20.80;56.60;;;;;;4710730;30;19931;-80
2021/05/16 01:15:40;;;;;;;;;;;20.80;56.50;;;;;;4695036;30;20049;-80
2021/05/16 01:18:07;;;;;;;;;;;20.80;56.50;;;;;;4696553;30;19957;-80
2021/05/16 01:20:36;;;;;;;;;;;20.80;56.50;;;;;;4697536;30;19953;-80
2021/05/16 01:23:06;;;;;;;;;;;20.80;56.50;;;;;;4695403;30;20657;-80
2021/05/16 01:25:53;;;;;;;;;;;20.80;56.50;;;;;;4707379;30;20523;-80
2021/05/16 01:28:20;;;;;;;;;;;20.80;56.50;;;;;;4696634;30;20300;-80
2021/05/16 01:30:48;;;;;;;;;;;20.80;57.10;;;;;;4699875;30;19950;-80
2021/05/16 01:33:15;;;;;;;;;;;20.80;56.50;;;;;;4709306;30;19935;-80
2021/05/16 01:35:42;;;;;;;;;;;20.80;56.50;;;;;;4709370;30;19959;-80
2021/05/16 01:38:09;;;;;;;;;;;20.70;56.40;;;;;;4712207;30;19931;-79
2021/05/16 01:40:38;;;;;;;;;;;20.70;56.40;;;;;;4711461;30;19962;-80
2021/05/16 01:43:12;;;;;;;;;;;20.80;56.50;;;;;;4710742;30;20324;-80
2021/05/16 01:45:39;;;;;;;;;;;20.80;56.40;;;;;;4710091;30;19934;-81
2021/05/16 01:48:06;;;;;;;;;;;20.70;56.40;;;;;;4711571;30;19939;-79
2021/05/16 01:50:34;;;;;;;;;;;20.70;56.40;;;;;;4708841;30;20727;-80
2021/05/16 01:53:02;;;;;;;;;;;20.70;56.40;;;;;;4712522;30;19938;-80
2021/05/16 01:55:28;;;;;;;;;;;20.70;56.40;;;;;;4711181;30;19956;-80
2021/05/16 01:57:55;;;;;;;;;;;20.80;56.40;;;;;;4707768;30;19957;-79
2021/05/16 02:00:29;;;;;;;;;;;20.80;56.40;;;;;;4707981;30;19993;-79
2021/05/16 02:02:56;;;;;;;;;;;20.70;56.30;;;;;;4700462;30;19946;-79
2021/05/16 02:05:24;;;;;;;;;;;20.70;56.30;;;;;;4706527;30;19934;-79
2021/05/16 02:07:51;;;;;;;;;;;20.70;56.30;;;;;;4701253;30;19938;-79
2021/05/16 02:10:18;;;;;;;;;;;20.70;56.30;;;;;;4704965;30;20132;-79
2021/05/16 02:12:45;;;;;;;;;;;20.70;56.30;;;;;;4708441;30;19953;-79
2021/05/16 02:15:12;;;;;;;;;;;20.70;56.20;;;;;;4712106;30;19937;-79
2021/05/16 02:17:40;;;;;;;;;;;20.70;56.30;;;;;;4709338;30;19935;-79
2021/05/16 02:20:11;;;;;;;;;;;20.70;56.20;;;;;;4710133;30;19935;-79
2021/05/16 02:22:38;;;;;;;;;;;20.70;56.20;;;;;;4707105;30;19938;-80
2021/05/16 02:25:05;;;;;;;;;;;20.70;56.20;;;;;;4702326;30;19938;-79
2021/05/16 02:27:33;;;;;;;;;;;20.70;56.20;;;;;;4707093;30;21025;-79
2021/05/16 02:30:00;;;;;;;;;;;20.70;56.20;;;;;;4713633;30;20384;-79
2021/05/16 02:32:27;;;;;;;;;;;20.70;56.20;;;;;;4708116;30;19939;-79
2021/05/16 02:34:53;;;;;;;;;;;20.70;56.20;;;;;;4699071;30;19935;-79
2021/05/16 02:37:20;;;;;;;;;;;20.70;56.20;;;;;;4707908;30;19930;-78
2021/05/16 02:39:47;;;;;;;;;;;20.70;56.20;;;;;;4712722;30;19931;-78
2021/05/16 02:42:13;;;;;;;;;;;20.60;56.10;;;;;;4708552;30;19931;-80
2021/05/16 02:44:40;;;;;;;;;;;20.70;56.20;;;;;;4709014;30;19931;-80
2021/05/16 02:47:10;;;;;;;;;;;20.70;56.10;;;;;;4711364;30;20522;-80
2021/05/16 02:49:37;;;;;;;;;;;20.70;56.10;;;;;;4724286;30;19930;-81
2021/05/16 02:52:03;;;;;;;;;;;20.60;56.00;;;;;;4713953;30;19938;-80
2021/05/16 02:54:33;;;;;;;;;;;20.60;56.00;;;;;;4712916;30;20423;-80
2021/05/16 02:57:00;;;;;;;;;;;20.60;56.00;;;;;;4715802;30;19938;-80
2021/05/16 02:59:28;;;;;;;;;;;20.60;56.00;;;;;;4712586;30;19939;-81
2021/05/16 03:01:55;;;;;;;;;;;20.60;56.00;;;;;;4706877;30;20532;-81
2021/05/16 03:04:23;;;;;;;;;;;20.60;55.90;;;;;;4700478;30;20487;-80
2021/05/16 03:06:49;;;;;;;;;;;20.60;55.90;;;;;;4696862;30;19931;-80
2021/05/16 03:09:16;;;;;;;;;;;20.60;55.90;;;;;;4697193;30;19938;-80
2021/05/16 03:11:43;;;;;;;;;;;20.60;55.90;;;;;;4699090;30;19931;-80
2021/05/16 03:14:10;;;;;;;;;;;20.60;55.90;;;;;;4697522;30;20500;-80
2021/05/16 03:16:37;;;;;;;;;;;20.60;55.90;;;;;;4697222;30;19935;-81
2021/05/16 03:19:04;;;;;;;;;;;20.60;55.90;;;;;;4699347;30;19943;-81
2021/05/16 03:21:31;;;;;;;;;;;20.60;55.90;;;;;;4698709;30;19935;-80
2021/05/16 03:23:58;;;;;;;;;;;20.60;55.80;;;;;;4699440;30;19938;-81
2021/05/16 03:26:24;;;;;;;;;;;20.60;55.90;;;;;;4683317;30;19935;-80
2021/05/16 03:28:51;;;;;;;;;;;20.60;55.90;;;;;;4698275;30;20171;-79
2021/05/16 03:31:18;;;;;;;;;;;20.60;55.90;;;;;;4686858;30;20408;-80
2021/05/16 03:33:45;;;;;;;;;;;20.50;55.80;;;;;;4696729;30;19938;-80
2021/05/16 03:36:12;;;;;;;;;;;20.60;55.80;;;;;;4693656;30;20400;-79
2021/05/16 03:38:40;;;;;;;;;;;20.60;55.90;;;;;;4692699;30;19948;-80
2021/05/16 03:41:06;;;;;;;;;;;20.60;55.80;;;;;;4696807;30;20397;-80
2021/05/16 03:43:33;;;;;;;;;;;20.50;55.80;;;;;;4694280;30;20356;-79
2021/05/16 03:46:00;;;;;;;;;;;20.60;55.80;;;;;;4698048;30;20377;-79
2021/05/16 03:48:26;;;;;;;;;;;20.60;55.80;;;;;;4696072;30;19946;-80
2021/05/16 03:50:53;;;;;;;;;;;20.50;55.80;;;;;;4709487;30;19931;-80
2021/05/16 03:53:20;;;;;;;;;;;20.50;55.80;;;;;;4694147;30;20309;-79
2021/05/16 03:55:49;;;;;;;;;;;20.60;55.70;;;;;;4698504;30;19935;-79
2021/05/16 03:58:22;;;;;;;;;;;20.50;55.70;;;;;;4693469;30;19931;-79
2021/05/16 04:00:50;;;;;;;;;;;20.50;55.70;;;;;;4700130;30;19931;-79
2021/05/16 04:03:26;;;;;;;;;;;20.50;55.70;;;;;;4710701;30;20344;-79
2021/05/16 04:05:53;;;;;;;;;;;20.50;55.70;;;;;;4713402;30;20558;-80
2021/05/16 04:08:19;;;;;;;;;;;20.50;55.60;;;;;;4720236;30;19931;-80
2021/05/16 04:10:46;;;;;;;;;;;20.50;55.60;;;;;;4721731;30;19942;-80
2021/05/16 04:13:13;;;;;;;;;;;20.50;55.60;;;;;;4695229;30;20308;-80
2021/05/16 04:15:45;;;;;;;;;;;20.50;55.60;;;;;;4715198;30;19931;-80
2021/05/16 04:18:11;;;;;;;;;;;20.50;55.60;;;;;;4713464;30;19941;-80
2021/05/16 04:20:38;;;;;;;;;;;20.50;55.50;;;;;;4707935;30;20152;-79
2021/05/16 04:23:05;;;;;;;;;;;20.50;55.50;;;;;;4699324;30;19938;-79
2021/05/16 04:25:32;;;;;;;;;;;20.50;55.50;;;;;;4709257;30;20405;-79
2021/05/16 04:27:58;;;;;;;;;;;20.50;55.50;;;;;;4716694;30;19931;-80
2021/05/16 04:30:25;;;;;;;;;;;20.50;55.50;;;;;;4713350;30;19950;-79
2021/05/16 04:32:52;;;;;;;;;;;20.50;55.40;;;;;;4696385;30;19931;-79
2021/05/16 04:35:18;;;;;;;;;;;20.50;55.40;;;;;;4697536;30;20278;-79
2021/05/16 04:37:45;;;;;;;;;;;20.50;55.40;;;;;;4713210;30;19938;-79
2021/05/16 04:40:12;;;;;;;;;;;20.50;55.40;;;;;;4710177;30;19931;-79
2021/05/16 04:42:39;;;;;;;;;;;20.50;55.30;;;;;;4708505;30;19942;-80
2021/05/16 04:45:06;;;;;;;;;;;20.40;55.30;;;;;;4715104;30;19964;-79
2021/05/16 04:47:32;;;;;;;;;;;20.50;55.30;;;;;;4706195;30;20194;-79
2021/05/16 04:50:00;;;;;;;;;;;20.50;55.20;;;;;;4712774;30;19930;-80
2021/05/16 04:52:26;;;;;;;;;;;20.50;55.20;;;;;;4703440;30;22718;-80
2021/05/16 04:54:53;;;;;;;;;;;20.50;55.20;;;;;;4713292;30;19937;-78
2021/05/16 04:57:20;;;;;;;;;;;20.50;55.20;;;;;;4703955;30;19939;-79
2021/05/16 04:59:49;;;;;;;;;;;20.50;55.20;;;;;;4710853;30;19931;-79
2021/05/16 05:02:16;;;;;;;;;;;20.50;55.20;;;;;;4711796;30;19956;-79
2021/05/16 05:04:42;;;;;;;;;;;20.50;55.20;;;;;;4710052;30;19935;-79
2021/05/16 05:07:09;;;;;;;;;;;20.50;55.20;;;;;;4709286;30;19931;-80
2021/05/16 05:09:36;;;;;;;;;;;20.40;55.10;;;;;;4703132;30;19931;-79
2021/05/16 05:12:03;;;;;;;;;;;20.50;55.10;;;;;;4693130;30;21286;-79
2021/05/16 05:14:30;;;;;;;;;;;20.50;55.10;;;;;;4701498;30;19935;-78
2021/05/16 05:16:57;;;;;;;;;;;20.50;55.10;;;;;;4705409;30;19977;-78
2021/05/16 05:19:24;;;;;;;;;;;20.50;55.10;;;;;;4699897;30;20298;-79
2021/05/16 05:21:51;;;;;;;;;;;20.50;55.10;;;;;;4710751;30;19931;-79
2021/05/16 05:24:18;;;;;;;;;;;20.40;55.00;;;;;;4701195;30;19930;-78
2021/05/16 05:26:44;;;;;;;;;;;20.40;55.00;;;;;;4706075;30;20318;-79
2021/05/16 05:29:11;;;;;;;;;;;20.40;54.90;;;;;;4695244;30;19935;-78
2021/05/16 05:31:38;;;;;;;;;;;20.40;54.90;;;;;;4699177;30;19931;-78
2021/05/16 05:34:04;;;;;;;;;;;20.40;54.90;;;;;;4701507;30;20479;-78
2021/05/16 05:36:31;;;;;;;;;;;20.40;54.90;;;;;;4710730;30;19935;-78
2021/05/16 05:38:58;;;;;;;;;;;20.50;54.90;;;;;;4698668;30;19930;-78
2021/05/16 05:41:25;;;;;;;;;;;20.40;54.80;;;;;;4707125;30;20308;-79
2021/05/16 05:43:52;;;;;;;;;;;20.40;54.80;;;;;;4701961;30;19938;-79
2021/05/16 05:46:18;;;;;;;;;;;20.50;54.90;;;;;;4708859;30;19931;-79
2021/05/16 05:48:45;;;;;;;;;;;20.40;54.80;;;;;;4711690;30;19938;-80
2021/05/16 05:51:12;;;;;;;;;;;20.40;54.80;;;;;;4711092;30;19931;-81
2021/05/16 05:53:40;;;;;;;;;;;20.40;54.80;;;;;;4705803;30;19934;-80
2021/05/16 05:56:07;;;;;;;;;;;20.40;54.70;;;;;;4704195;30;19939;-79
2021/05/16 05:58:35;;;;;;;;;;;20.40;54.30;;;;;;4699465;30;19939;-78
2021/05/16 06:01:02;;;;;;;;;;;20.50;54.80;;;;;;4702000;30;21062;-78
2021/05/16 06:03:29;;;;;;;;;;;20.40;54.90;;;;;;4698771;30;19935;-78
2021/05/16 06:05:56;;;;;;;;;;;20.40;54.90;;;;;;4707994;30;20333;-78
2021/05/16 06:08:23;;;;;;;;;;;20.50;54.90;;;;;;4709838;30;20277;-78
2021/05/16 06:10:49;;;;;;;;;;;20.40;54.80;;;;;;4699577;30;20292;-79
2021/05/16 06:13:16;;;;;;;;;;;20.50;54.80;;;;;;4703540;30;19935;-79
2021/05/16 06:15:42;;;;;;;;;;;20.50;54.80;;;;;;4705428;30;19938;-79
2021/05/16 06:18:09;;;;;;;;;;;20.50;54.70;;;;;;4706458;30;19931;-79
2021/05/16 06:20:36;;;;;;;;;;;20.50;54.70;;;;;;4703471;30;20026;-79
2021/05/16 06:23:05;;;;;;;;;;;20.50;54.70;;;;;;4704063;30;20544;-76
2021/05/16 06:25:31;;;;;;;;;;;20.50;54.70;;;;;;4708382;30;20282;-78
2021/05/16 06:27:58;;;;;;;;;;;20.50;54.60;;;;;;4707666;30;20385;-78
2021/05/16 06:30:25;;;;;;;;;;;20.50;54.60;;;;;;4712235;30;19942;-78
2021/05/16 06:32:52;;;;;;;;;;;20.50;54.60;;;;;;4705554;30;20275;-78
2021/05/16 06:35:19;;;;;;;;;;;20.50;54.60;;;;;;4708114;30;19938;-78
2021/05/16 06:37:46;;;;;;;;;;;20.50;54.60;;;;;;4705695;30;19938;-78
2021/05/16 06:40:13;;;;;;;;;;;20.50;54.60;;;;;;4706198;30;19931;-77
2021/05/16 06:42:41;;;;;;;;;;;20.50;54.60;;;;;;4709515;30;19935;-81
2021/05/16 06:45:08;;;;;;;;;;;20.50;54.50;;;;;;4722637;30;19938;-79
2021/05/16 06:47:35;;;;;;;;;;;20.50;54.50;;;;;;4711970;30;20385;-80
2021/05/16 06:50:03;;;;;;;;;;;20.50;54.40;;;;;;4708607;30;20908;-80
2021/05/16 06:52:29;;;;;;;;;;;20.40;54.40;;;;;;4709358;30;19941;-77
2021/05/16 06:54:56;;;;;;;;;;;20.50;54.50;;;;;;4708523;30;19931;-77
2021/05/16 06:57:23;;;;;;;;;;;20.50;54.60;;;;;;4714125;30;20433;-78
2021/05/16 06:59:53;;;;;;;;;;;20.50;54.50;;;;;;4716357;30;19930;-79
2021/05/16 07:02:19;;;;;;;;;;;20.50;54.30;;;;;;4686990;30;20355;-79
2021/05/16 07:04:51;;;;;;;;;;;20.50;54.30;;;;;;4691036;30;19931;-82
2021/05/16 07:07:18;;;;;;;;;;;20.50;53.60;;;;;;4700524;30;19931;-84
2021/05/16 07:09:45;;;;;;;;;;;20.60;53.10;;;;;;4695756;30;19942;-84
2021/05/16 07:12:15;;;;;;;;;;;20.60;52.90;;;;;;4698694;30;20197;-85
2021/05/16 07:14:42;;;;;;;;;;;20.60;52.50;;;;;;4688045;30;19940;-84
2021/05/16 07:17:08;;;;;;;;;;;20.70;52.70;;;;;;4698207;30;20118;-84
2021/05/16 07:19:35;;;;;;;;;;;20.70;52.30;;;;;;4699846;30;20159;-84
2021/05/16 07:22:02;;;;;;;;;;;20.70;52.10;;;;;;4683488;30;19939;-84
2021/05/16 07:24:29;;;;;;;;;;;20.70;51.70;;;;;;4697514;30;19940;-93
2021/05/16 07:26:56;;;;;;;;;;;20.80;51.60;;;;;;4689632;30;19931;-84
2021/05/16 07:29:22;;;;;;;;;;;20.80;51.60;;;;;;4691667;30;19931;-84
2021/05/16 07:31:50;;;;;;;;;;;20.90;52.30;;;;;;4695896;30;19995;-85
2021/05/16 07:34:17;;;;;;;;;;;20.90;52.40;;;;;;4679012;30;19950;-91
2021/05/16 07:36:45;;;;;;;;;;;20.90;52.00;;;;;;4689509;30;19939;-89
2021/05/16 07:39:14;;;;;;;;;;;20.90;51.40;;;;;;4692476;30;20364;-87
2021/05/16 07:41:43;;;;;;;;;;;20.90;51.00;;;;;;4676374;30;19982;-85
2021/05/16 07:44:10;;;;;;;;;;;21.00;50.60;;;;;;4696520;30;19946;-89
2021/05/16 07:46:36;;;;;;;;;;;21.00;50.20;;;;;;4684604;30;20286;-87
2021/05/16 07:49:06;;;;;;;;;;;21.00;50.10;;;;;;4692954;30;19931;-86
2021/05/16 07:51:32;;;;;;;;;;;21.00;49.90;;;;;;4674436;30;20911;-86
2021/05/16 07:53:59;;;;;;;;;;;21.00;49.80;;;;;;4694749;30;19935;-84
2021/05/16 07:56:26;;;;;;;;;;;21.00;49.30;;;;;;4690525;30;19940;-81
2021/05/16 07:58:53;;;;;;;;;;;21.00;49.70;;;;;;4688728;30;19931;-81
2021/05/16 08:01:19;;;;;;;;;;;21.00;50.60;;;;;;4688027;30;19941;-83
2021/05/16 08:03:47;;;;;;;;;;;21.00;50.60;;;;;;4713697;30;19965;-82
2021/05/16 08:06:18;;;;;;;;;;;21.00;50.50;;;;;;4709206;30;20167;-81
2021/05/16 08:08:45;;;;;;;;;;;21.00;50.20;;;;;;4711907;30;19964;-82
2021/05/16 08:11:12;;;;;;;;;;;21.10;50.00;;;;;;4712493;30;19931;-82
2021/05/16 08:13:39;;;;;;;;;;;21.10;49.80;;;;;;4695316;30;19943;-82
2021/05/16 08:16:10;;;;;;;;;;;21.10;50.10;;;;;;4711173;30;20401;-82
2021/05/16 08:18:37;;;;;;;;;;;21.10;49.60;;;;;;4699835;30;20445;-82
2021/05/16 08:21:04;;;;;;;;;;;21.00;49.50;;;;;;4721649;30;19942;-82
2021/05/16 08:23:40;;;;;;;;;;;21.00;49.60;;;;;;4697958;30;19978;-83
2021/05/16 08:26:06;;;;;;;;;;;21.00;49.50;;;;;;4720301;30;19935;-81
2021/05/16 08:28:33;;;;;;;;;;;21.00;49.80;;;;;;4711158;30;19938;-79
2021/05/16 08:31:00;;;;;;;;;;;21.00;49.60;;;;;;4713795;30;19934;-82
2021/05/16 08:33:26;;;;;;;;;;;21.10;49.70;;;;;;4711186;30;19938;-78
2021/05/16 08:35:53;;;;;;;;;;;21.00;49.10;;;;;;4714339;30;19938;-80
2021/05/16 08:38:21;;;;;;;;;;;21.10;49.90;;;;;;4718536;30;20387;-83
2021/05/16 08:40:47;;;;;;;;;;;21.10;49.10;;;;;;4713036;30;19946;-86
2021/05/16 08:43:14;;;;;;;;;;;21.10;48.60;;;;;;4730481;30;20013;-80
2021/05/16 08:45:42;;;;;;;;;;;21.10;48.60;;;;;;4716905;30;20453;-85
2021/05/16 08:48:13;;;;;;;;;;;21.10;48.70;;;;;;4720343;30;19981;-81
2021/05/16 08:50:41;;;;;;;;;;;21.10;48.80;;;;;;4708614;30;19919;-81
2021/05/16 08:53:11;;;;;;;;;;;21.10;48.50;;;;;;4742311;30;19969;-81
2021/05/16 08:55:39;;;;;;;;;;;21.20;47.70;;;;;;4718634;30;19938;-81
2021/05/16 08:58:07;;;;;;;;;;;21.10;47.30;;;;;;4729862;30;19935;-80
2021/05/16 09:00:42;;;;;;;;;;;21.10;48.00;;;;;;4728965;30;20558;-82
2021/05/16 09:03:14;;;;;;;;;;;21.10;47.40;;;;;;4705932;30;19962;-82
2021/05/16 09:05:44;;;;;;;;;;;21.10;47.40;;;;;;4691778;30;20017;-92
2021/05/16 09:08:22;;;;;;;;;;;21.10;47.20;;;;;;4699616;30;20380;-83
2021/05/16 09:10:54;;;;;;;;;;;21.20;46.90;;;;;;4714022;30;19945;-86
2021/05/16 09:13:23;;;;;;;;;;;21.20;46.90;;;;;;4713853;30;19935;-83
2021/05/16 09:16:09;;;;;;;;;;;21.20;46.90;;;;;;4713161;30;19942;-82
2021/05/16 09:18:47;;;;;;;;;;;21.20;46.90;;;;;;4712065;30;19938;-80
2021/05/16 09:21:19;;;;;;;;;;;21.20;47.00;;;;;;4686097;30;21886;-80
2021/05/16 09:23:50;;;;;;;;;;;21.20;47.00;;;;;;4710907;30;19993;-84
2021/05/16 09:26:17;;;;;;;;;;;21.20;47.00;;;;;;4711504;30;20444;-81
2021/05/16 09:28:43;;;;;;;;;;;21.20;46.90;;;;;;4711969;30;19937;-79
2021/05/16 09:31:12;;;;;;;;;;;21.20;47.10;;;;;;4685233;30;19935;-84
2021/05/16 09:33:42;;;;;;;;;;;21.20;47.50;;;;;;4695935;30;20033;-85
2021/05/16 09:36:09;;;;;;;;;;;21.20;47.90;;;;;;4689282;30;19960;-82
2021/05/16 09:38:36;;;;;;;;;;;21.30;48.20;;;;;;4692531;30;19937;-85
2021/05/16 09:41:06;;;;;;;;;;;21.30;48.00;;;;;;4719670;30;20454;-85
2021/05/16 09:43:34;;;;;;;;;;;21.30;48.10;;;;;;4734087;25;20597;-81
2021/05/16 09:46:05;;;;;;;;;;;21.30;48.20;;;;;;4733063;30;19934;-86
2021/05/16 09:48:36;;;;;;;;;;;21.40;48.30;;;;;;4713679;30;19919;-87
2021/05/16 09:51:10;;;;;;;;;;;21.40;48.50;;;;;;4728735;30;19938;-87
2021/05/16 09:59:12;;;;;;;;;;;21.50;48.40;;;;;;4854207;24;20319;-64
2021/05/16 10:01:38;;;;;;;;;;;21.50;48.40;;;;;;4709165;30;20000;-63
2021/05/16 10:04:06;;;;;;;;;;;21.50;48.40;;;;;;4703691;30;20303;-59
2021/05/16 10:06:33;;;;;;;;;;;21.50;48.80;;;;;;4711183;30;20263;-62
2021/05/16 10:09:00;;;;;;;;;;;21.60;48.90;;;;;;4710631;30;19974;-62
2021/05/16 10:11:29;;;;;;;;;;;21.60;47.80;;;;;;4711623;30;19930;-60
2021/05/16 10:14:14;;;;;;;;;;;21.60;47.70;;;;;;4706205;30;19931;-62
2021/05/16 10:16:52;;;;;;;;;;;21.50;47.60;;;;;;4705576;30;21334;-61
2021/05/16 10:19:19;;;;;;;;;;;21.60;47.70;;;;;;4707438;30;19962;-62
2021/05/16 10:22:04;;;;;;;;;;;21.60;47.90;;;;;;4710658;30;19935;-63
2021/05/16 10:24:54;;;;;;;;;;;21.50;47.90;;;;;;4700053;30;19937;-61
2021/05/16 10:27:25;;;;;;;;;;;21.60;48.00;;;;;;4680666;30;20108;-62
2021/05/16 10:29:53;;;;;;;;;;;21.50;47.90;;;;;;4704456;30;19935;-62
2021/05/16 10:32:21;;;;;;;;;;;21.50;47.40;;;;;;4704944;30;19931;-62
2021/05/16 10:34:57;;;;;;;;;;;21.50;47.50;;;;;;4706273;30;20380;-63
2021/05/16 10:37:34;;;;;;;;;;;21.50;47.60;;;;;;4705838;30;19931;-61
2021/05/16 10:40:02;;;;;;;;;;;21.50;48.40;;;;;;4709483;30;19935;-62
2021/05/16 10:42:36;;;;;;;;;;;21.50;48.10;;;;;;4708431;30;20395;-62
2021/05/16 10:45:06;;;;;;;;;;;21.40;48.00;;;;;;4711778;30;20402;-63
2021/05/16 10:50:24;;;;;;;;;;;21.40;48.50;;;;;;4703685;30;20997;-60
2021/05/16 10:53:08;;;;;;;;;;;21.40;48.70;;;;;;4698973;30;19939;-60
2021/05/16 10:55:43;;;;;;;;;;;21.50;48.80;;;;;;4693036;30;20355;-60
2021/05/16 10:58:29;;;;;;;;;;;21.50;48.90;;;;;;4706505;30;23793;-63
2021/05/16 11:01:02;;;;;;;;;;;21.60;49.20;;;;;;4699055;30;20388;-59
2021/05/16 11:03:42;;;;;;;;;;;21.60;48.90;;;;;;4701997;30;19938;-62
2021/05/16 11:06:09;;;;;;;;;;;21.70;49.30;;;;;;4701531;30;20278;-62
2021/05/16 11:08:35;;;;;;;;;;;21.70;49.10;;;;;;4700482;30;20971;-61
2021/05/16 11:11:22;;;;;;;;;;;21.80;49.10;;;;;;4704232;30;20001;-60
2021/05/16 11:13:49;;;;;;;;;;;21.80;49.10;;;;;;4694811;30;21234;-63
2021/05/16 11:16:15;;;;;;;;;;;21.90;49.30;;;;;;4709236;30;19965;-58
2021/05/16 11:18:42;;;;;;;;;;;21.90;49.20;;;;;;4708837;30;20402;-63
2021/05/16 11:21:09;;;;;;;;;;;22.00;49.00;;;;;;4709834;30;19939;-63
2021/05/16 11:23:39;;;;;;;;;;;22.00;48.80;;;;;;4709529;30;20000;-64
2021/05/16 11:26:15;;;;;;;;;;;22.10;48.90;;;;;;4712352;30;20276;-62
2021/05/16 11:28:44;;;;;;;;;;;22.10;48.80;;;;;;4710405;30;20963;-62
2021/05/16 11:31:12;;;;;;;;;;;22.10;48.60;;;;;;4709900;30;20866;-60
2021/05/16 11:33:40;;;;;;;;;;;22.10;48.20;;;;;;4707227;30;19931;-65
2021/05/16 11:36:11;;;;;;;;;;;22.10;48.10;;;;;;4710490;30;19931;-61
2021/05/16 11:38:42;;;;;;;;;;;22.20;48.60;;;;;;4706602;30;21010;-63
2021/05/16 11:41:45;;;;;;;;;;;22.20;48.60;;;;;;4701300;30;19939;-60
2021/05/16 11:44:13;;;;;;;;;;;22.20;46.90;;;;;;4643618;30;20558;-59
2021/05/16 11:46:41;;;;;;;;;;;22.30;47.70;;;;;;4690004;30;19962;-61
2021/05/16 11:49:09;;;;;;;;;;;22.40;48.10;;;;;;4704220;30;20418;-61
2021/05/16 11:51:35;;;;;;;;;;;22.40;48.40;;;;;;4700369;30;20022;-60
2021/05/16 11:54:02;;;;;;;;;;;22.40;48.50;;;;;;4707712;30;20051;-61
2021/05/16 11:56:30;;;;;;;;;;;22.50;48.30;;;;;;4697519;30;20002;-60
2021/05/16 11:59:03;;;;;;;;;;;22.50;47.90;;;;;;4708373;30;19994;-60
2021/05/16 12:01:33;;;;;;;;;;;22.60;48.40;;;;;;4706730;30;20402;-60
2021/05/16 12:04:01;;;;;;;;;;;22.60;48.40;;;;;;4711614;30;19934;-60
2021/05/16 12:06:29;;;;;;;;;;;22.60;48.00;;;;;;4709319;30;20043;-62
2021/05/16 12:08:59;;;;;;;;;;;22.70;48.30;;;;;;4709975;30;19931;-63
2021/05/16 12:11:25;;;;;;;;;;;22.60;48.30;;;;;;4713006;30;20304;-59
2021/05/16 12:14:02;;;;;;;;;;;22.60;48.70;;;;;;4710412;30;20020;-61
2021/05/16 12:16:28;;;;;;;;;;;22.70;48.70;;;;;;4706257;30;19992;-61
2021/05/16 12:18:55;;;;;;;;;;;22.70;48.60;;;;;;4709460;30;19958;-62
2021/05/16 12:21:22;;;;;;;;;;;22.70;48.80;;;;;;4708186;30;19942;-64
2021/05/16 12:23:52;;;;;;;;;;;22.70;48.20;;;;;;4708987;30;19970;-61
2021/05/16 12:26:19;;;;;;;;;;;22.70;48.20;;;;;;4708935;30;19931;-61
2021/05/16 12:28:47;;;;;;;;;;;22.80;48.20;;;;;;4710290;30;20291;-61
2021/05/16 12:31:14;;;;;;;;;;;22.70;48.10;;;;;;4711938;30;19931;-62
2021/05/16 12:33:40;;;;;;;;;;;22.70;48.20;;;;;;4704150;30;20454;-63
2021/05/16 12:36:07;;;;;;;;;;;22.80;48.40;;;;;;4708349;30;20403;-65
2021/05/16 12:38:41;;;;;;;;;;;22.80;48.50;;;;;;4708607;30;21421;-60
2021/05/16 12:41:12;;;;;;;;;;;22.80;48.30;;;;;;4706091;30;22835;-61
2021/05/16 12:43:39;;;;;;;;;;;22.90;48.30;;;;;;4710579;30;19966;-64
2021/05/16 12:46:07;;;;;;;;;;;22.90;48.60;;;;;;4706250;30;19938;-62
2021/05/16 12:48:34;;;;;;;;;;;22.90;49.00;;;;;;4710057;30;19942;-62
2021/05/16 12:51:00;;;;;;;;;;;22.90;48.40;;;;;;4706807;30;20026;-63
2021/05/16 12:53:32;;;;;;;;;;;22.90;48.20;;;;;;4710799;30;19938;-64
2021/05/16 12:56:17;;;;;;;;;;;22.90;48.20;;;;;;4707267;30;20465;-64
2021/05/16 12:59:11;;;;;;;;;;;23.00;48.30;;;;;;4687348;30;23155;-63
2021/05/16 13:01:42;;;;;;;;;;;23.00;48.60;;;;;;4698431;30;21221;-63
2021/05/16 13:04:11;;;;;;;;;;;23.00;48.40;;;;;;4703043;30;21265;-63
2021/05/16 13:06:39;;;;;;;;;;;23.10;48.10;;;;;;4703896;30;20465;-62
2021/05/16 13:09:06;;;;;;;;;;;23.00;48.30;;;;;;4706376;30;22577;-62
2021/05/16 13:11:46;;;;;;;;;;;23.00;48.10;;;;;;4707935;30;20541;-62
2021/05/16 13:14:26;;;;;;;;;;;23.10;48.40;;;;;;4705360;30;21035;-61
2021/05/16 13:17:05;;;;;;;;;;;23.10;48.40;;;;;;4700752;30;19946;-64
2021/05/16 13:19:39;;;;;;;;;;;23.10;48.10;;;;;;4702523;30;19962;-60
2021/05/16 13:22:25;;;;;;;;;;;23.10;48.50;;;;;;4701729;30;21171;-60
2021/05/16 13:24:51;;;;;;;;;;;23.20;48.30;;;;;;4696219;30;20466;-61
2021/05/16 13:27:19;;;;;;;;;;;23.10;48.40;;;;;;4702766;30;20027;-65
2021/05/16 13:29:49;;;;;;;;;;;23.10;48.60;;;;;;4707520;30;21208;-65
2021/05/16 13:32:16;;;;;;;;;;;23.20;48.60;;;;;;4707429;30;19930;-66
2021/05/16 13:34:45;;;;;;;;;;;23.20;48.60;;;;;;4707918;30;19939;-63
2021/05/16 13:37:12;;;;;;;;;;;23.20;48.70;;;;;;4706898;30;19942;-63
2021/05/16 13:39:40;;;;;;;;;;;23.20;49.20;;;;;;4707115;30;19935;-63
2021/05/16 13:42:06;;;;;;;;;;;23.20;48.50;;;;;;4703835;30;20448;-61
2021/05/16 13:44:33;;;;;;;;;;;23.20;48.50;;;;;;4710959;30;21411;-61
2021/05/16 13:47:05;;;;;;;;;;;23.20;47.90;;;;;;4708864;30;19938;-61
2021/05/16 13:49:33;;;;;;;;;;;23.30;48.10;;;;;;4705336;30;20659;-61
2021/05/16 13:52:00;;;;;;;;;;;23.30;47.70;;;;;;4707505;30;19935;-63
2021/05/16 13:54:30;;;;;;;;;;;23.40;48.10;;;;;;4702692;30;20418;-64
2021/05/16 13:56:57;;;;;;;;;;;23.40;48.10;;;;;;4706310;30;19948;-61
2021/05/16 13:59:25;;;;;;;;;;;23.40;49.50;;;;;;4706779;30;19935;-61
2021/05/16 14:01:52;;;;;;;;;;;23.30;48.50;;;;;;4710397;30;19983;-62
2021/05/16 14:04:19;;;;;;;;;;;23.30;47.50;;;;;;4710238;30;20295;-62
2021/05/16 14:06:46;;;;;;;;;;;23.20;45.90;;;;;;4708286;30;19930;-61
2021/05/16 14:09:13;;;;;;;;;;;23.20;44.50;;;;;;4706481;30;19956;-64
2021/05/16 14:11:40;;;;;;;;;;;23.10;44.20;;;;;;4702905;30;19941;-60
2021/05/16 14:14:07;;;;;;;;;;;23.00;44.50;;;;;;4709460;30;19943;-61
2021/05/16 14:16:35;;;;;;;;;;;22.90;44.20;;;;;;4705431;30;20273;-59
2021/05/16 14:19:02;;;;;;;;;;;22.90;45.20;;;;;;4706480;30;20000;-61
2021/05/16 14:21:29;;;;;;;;;;;22.90;45.70;;;;;;4696737;30;19956;-61
2021/05/16 14:23:55;;;;;;;;;;;22.90;45.60;;;;;;4708980;30;19935;-61
2021/05/16 14:26:25;;;;;;;;;;;23.00;45.10;;;;;;4709097;30;19954;-60
2021/05/16 14:28:52;;;;;;;;;;;23.00;45.70;;;;;;4705386;30;19935;-60
2021/05/16 14:31:18;;;;;;;;;;;23.00;46.10;;;;;;4704422;30;19935;-61
2021/05/16 14:33:45;;;;;;;;;;;23.10;46.20;;;;;;4705983;30;19960;-60